createdAt,value
2019-06-07T00:00:53.440Z,45.70
2019-06-07T00:03:29.724Z,45.70
2019-06-07T00:05:54.726Z,45.70
2019-06-07T00:08:28.416Z,45.80
2019-06-07T00:10:55.790Z,45.80
2019-06-07T00:13:25.355Z,46.20
2019-06-07T00:15:54.875Z,45.70
2019-06-07T00:18:26.189Z,45.70
2019-06-07T00:20:56.681Z,45.90
2019-06-07T00:23:27.340Z,46.00
2019-06-07T00:25:56.876Z,46.10
2019-06-07T00:28:26.487Z,46.10
2019-06-07T00:30:56.106Z,46.00
2019-06-07T00:33:25.677Z,45.90
2019-06-07T00:35:56.437Z,46.00
2019-06-07T00:38:25.988Z,45.90
2019-06-07T00:40:55.610Z,46.10
2019-06-07T00:43:28.273Z,46.10
2019-06-07T00:45:56.399Z,46.00
2019-06-07T00:48:32.184Z,46.10
2019-06-07T00:50:57.392Z,46.10
2019-06-07T00:53:31.793Z,46.10
2019-06-07T00:55:58.167Z,46.20
2019-06-07T00:58:29.526Z,46.20
2019-06-07T01:00:59.121Z,46.00
2019-06-07T01:03:29.064Z,46.10
2019-06-07T01:05:58.588Z,46.20
2019-06-07T01:08:30.095Z,46.20
2019-06-07T01:10:59.764Z,46.20
2019-06-07T01:13:29.390Z,46.10
2019-06-07T01:15:59.966Z,46.10
2019-06-07T01:18:41.275Z,46.30
2019-06-07T01:21:00.778Z,46.10
2019-06-07T01:26:01.681Z,45.80
2019-06-07T01:28:31.485Z,46.00
2019-06-07T01:31:01.010Z,46.00
2019-06-07T01:33:49.846Z,46.00
2019-06-07T01:36:02.076Z,46.00
2019-06-07T01:38:32.112Z,46.00
2019-06-07T01:41:01.661Z,46.10
2019-06-07T01:43:31.336Z,46.20
2019-06-07T01:46:01.022Z,46.10
2019-06-07T01:48:48.432Z,46.20
2019-06-07T01:51:03.161Z,46.40
2019-06-07T01:53:33.109Z,46.20
2019-06-07T01:56:02.640Z,46.40
2019-06-07T01:58:32.270Z,46.20
2019-06-07T02:01:01.885Z,46.20
2019-06-07T02:03:33.306Z,46.20
2019-06-07T02:06:03.033Z,46.40
2019-06-07T02:08:34.294Z,46.30
2019-06-07T02:11:04.214Z,46.30
2019-06-07T02:13:33.778Z,46.20
2019-06-07T02:16:03.670Z,46.20
2019-06-07T02:18:34.968Z,46.20
2019-06-07T02:21:04.402Z,46.20
2019-06-07T02:23:33.984Z,46.30
2019-06-07T02:26:03.552Z,46.30
2019-06-07T02:28:44.656Z,46.30
2019-06-07T02:31:04.661Z,46.40
2019-06-07T02:33:39.765Z,46.20
2019-06-07T02:36:05.412Z,46.20
2019-06-07T02:38:37.490Z,46.30
2019-06-07T02:41:06.429Z,46.50
2019-06-07T02:43:37.067Z,46.40
2019-06-07T02:46:30.464Z,46.40
2019-06-07T02:48:55.320Z,46.60
2019-06-07T02:51:32.324Z,46.60
2019-06-07T02:53:56.532Z,46.70
2019-06-07T02:56:39.174Z,46.70
2019-06-07T02:58:57.327Z,46.90
2019-06-07T03:01:28.433Z,46.80
2019-06-07T03:03:58.898Z,46.80
2019-06-07T03:06:31.841Z,47.40
2019-06-07T03:08:59.892Z,46.80
2019-06-07T03:11:31.659Z,46.70
2019-06-07T03:14:00.906Z,46.90
2019-06-07T03:16:37.316Z,47.00
2019-06-07T03:19:12.083Z,47.00
2019-06-07T03:21:43.247Z,47.10
2019-06-07T03:24:12.777Z,47.20
2019-06-07T03:27:32.158Z,47.30
2019-06-07T03:29:14.438Z,47.40
2019-06-07T03:31:47.794Z,47.50
2019-06-07T03:34:15.658Z,47.40
2019-06-07T03:36:45.548Z,47.40
2019-06-07T03:39:15.507Z,47.40
2019-06-07T03:42:04.702Z,47.40
2019-06-07T03:44:16.446Z,47.50
2019-06-07T03:46:46.351Z,47.50
2019-06-07T03:49:16.292Z,47.50
2019-06-07T03:51:45.993Z,47.90
2019-06-07T03:54:16.042Z,47.60
2019-06-07T03:56:45.619Z,47.80
2019-06-07T03:59:15.143Z,47.80
2019-06-07T04:01:45.017Z,47.90
2019-06-07T04:04:14.559Z,47.80
2019-06-07T04:06:44.108Z,47.70
2019-06-07T04:09:14.738Z,47.80
2019-06-07T04:11:48.208Z,47.70
2019-06-07T04:14:18.461Z,47.60
2019-06-07T04:16:48.018Z,47.70
2019-06-07T04:19:17.869Z,47.80
2019-06-07T04:21:47.563Z,47.90
2019-06-07T04:24:17.398Z,47.90
2019-06-07T04:26:46.991Z,47.90
2019-06-07T04:29:46.358Z,48.00
2019-06-07T04:31:48.305Z,48.00
2019-06-07T04:34:18.005Z,48.10
2019-06-07T04:36:58.413Z,47.90
2019-06-07T04:39:21.146Z,47.60
2019-06-07T04:41:50.690Z,47.10
2019-06-07T04:44:20.754Z,46.90
2019-06-07T04:46:50.873Z,46.80
2019-06-07T04:49:21.057Z,46.60
2019-06-07T04:51:50.995Z,46.50
2019-06-07T04:54:20.602Z,46.50
2019-06-07T04:56:50.287Z,46.40
2019-06-07T05:00:00.889Z,46.50
2019-06-07T05:01:51.471Z,46.40
2019-06-07T05:04:21.296Z,46.20
2019-06-07T05:06:51.129Z,46.40
2019-06-07T05:09:20.931Z,46.60
2019-06-07T05:11:51.185Z,47.40
2019-06-07T05:14:20.903Z,46.90
2019-06-07T05:16:50.815Z,46.40
2019-06-07T05:19:20.454Z,46.60
2019-06-07T05:22:03.495Z,46.70
2019-06-07T05:24:21.299Z,46.40
2019-06-07T05:26:50.933Z,46.40
2019-06-07T05:29:20.620Z,46.10
2019-06-07T05:31:50.240Z,46.20
2019-06-07T05:34:19.818Z,45.80
2019-06-07T05:37:10.644Z,45.90
2019-06-07T05:39:20.830Z,45.30
2019-06-07T05:41:50.753Z,45.30
2019-06-07T05:44:20.673Z,45.20
2019-06-07T05:46:50.476Z,45.20
2019-06-07T05:49:21.253Z,45.50
2019-06-07T05:51:51.136Z,45.70
2019-06-07T05:54:20.678Z,45.70
2019-06-07T05:56:50.447Z,45.70
2019-06-07T05:59:20.145Z,45.50
2019-06-07T06:02:00.173Z,44.90
2019-06-07T06:04:21.454Z,44.70
2019-06-07T06:06:51.236Z,44.70
2019-06-07T06:09:20.917Z,44.50
2019-06-07T06:12:01.496Z,44.50
2019-06-07T06:14:22.750Z,44.60
2019-06-07T06:16:52.476Z,44.70
2019-06-07T06:19:22.067Z,44.70
2019-06-07T06:21:51.613Z,44.70
2019-06-07T06:24:21.263Z,44.80
2019-06-07T06:26:55.208Z,44.60
2019-06-07T06:29:22.286Z,44.70
2019-06-07T06:32:39.456Z,44.70
2019-06-07T06:34:23.178Z,44.70
2019-06-07T06:36:52.716Z,44.70
2019-06-07T06:39:22.582Z,45.70
2019-06-07T06:42:00.851Z,46.00
2019-06-07T06:44:24.044Z,45.40
2019-06-07T06:46:58.073Z,45.00
2019-06-07T06:49:26.361Z,43.60
2019-06-07T06:51:55.922Z,41.90
2019-06-07T06:54:40.170Z,39.80
2019-06-07T06:57:18.156Z,38.90
2019-06-07T06:59:38.704Z,38.60
2019-06-07T07:01:59.790Z,38.50
2019-06-07T07:04:29.586Z,38.70
2019-06-07T07:06:59.532Z,39.60
2019-06-07T07:09:29.310Z,40.40
2019-06-07T07:12:10.900Z,40.80
2019-06-07T07:14:30.249Z,41.00
2019-06-07T07:17:00.301Z,40.00
2019-06-07T07:19:30.544Z,38.80
2019-06-07T07:22:00.142Z,37.50
2019-06-07T07:24:30.022Z,36.10
2019-06-07T07:26:59.743Z,34.60
2019-06-07T07:29:29.266Z,34.40
2019-06-07T07:31:58.823Z,35.80
2019-06-07T07:34:36.196Z,33.90
2019-06-07T07:37:00.239Z,32.60
2019-06-07T07:39:29.789Z,32.70
2019-06-07T07:42:18.081Z,31.70
2019-06-07T07:44:30.747Z,30.40
2019-06-07T07:47:04.933Z,28.80
2019-06-07T07:49:34.495Z,28.00
2019-06-07T07:52:04.111Z,26.80
2019-06-07T07:54:33.695Z,25.70
2019-06-07T07:57:03.502Z,26.00
2019-06-07T07:59:42.120Z,26.30
2019-06-07T08:02:05.410Z,26.00
2019-06-07T08:05:13.129Z,26.40
2019-06-07T08:07:06.263Z,25.80
2019-06-07T08:09:35.813Z,26.10
2019-06-07T08:12:05.510Z,24.70
2019-06-07T08:14:35.270Z,25.30
2019-06-07T08:17:04.978Z,24.40
2019-06-07T08:19:34.570Z,23.90
2019-06-07T08:22:04.787Z,22.50
2019-06-07T08:24:35.466Z,23.00
2019-06-07T08:27:25.212Z,21.90
2019-06-07T08:29:44.821Z,21.80
2019-06-07T08:32:07.901Z,22.10
2019-06-07T08:34:37.432Z,21.80
2019-06-07T08:37:07.092Z,20.70
2019-06-07T08:39:36.745Z,20.90
2019-06-07T08:42:17.612Z,20.70
2019-06-07T08:44:37.775Z,20.70
2019-06-07T08:47:19.771Z,20.10
2019-06-07T08:49:38.806Z,20.20
2019-06-07T08:52:12.186Z,19.70
2019-06-07T08:54:39.894Z,19.20
2019-06-07T08:57:20.741Z,18.80
2019-06-07T08:59:40.899Z,18.20
2019-06-07T09:02:23.388Z,18.10
2019-06-07T09:04:43.150Z,18.10
2019-06-07T09:07:19.487Z,17.90
2019-06-07T09:09:44.214Z,17.50
2019-06-07T09:12:14.157Z,17.80
2019-06-07T09:14:59.862Z,17.60
2019-06-07T09:17:15.002Z,17.30
2019-06-07T09:19:44.667Z,17.30
2019-06-07T09:22:14.486Z,17.70
2019-06-07T09:24:44.411Z,17.60
2019-06-07T09:27:14.531Z,17.40
2019-06-07T09:29:44.457Z,17.10
2019-06-07T09:32:18.270Z,17.00
2019-06-07T09:34:46.309Z,17.00
2019-06-07T09:38:03.167Z,16.90
2019-06-07T09:39:47.757Z,17.20
2019-06-07T09:42:17.595Z,16.50
2019-06-07T09:44:47.189Z,16.90
2019-06-07T09:47:30.954Z,16.90
2019-06-07T09:49:48.426Z,16.30
2019-06-07T09:52:18.205Z,16.30
2019-06-07T09:55:12.128Z,17.30
2019-06-07T09:57:19.073Z,17.20
2019-06-07T09:59:48.994Z,17.40
2019-06-07T10:02:18.698Z,17.40
2019-06-07T10:04:48.458Z,17.60
2019-06-07T10:07:31.322Z,18.10
2019-06-07T10:10:12.635Z,17.80
2019-06-07T10:12:21.688Z,18.10
2019-06-07T10:14:51.307Z,18.30
2019-06-07T10:17:20.994Z,18.80
2019-06-07T10:19:50.604Z,19.10
2019-06-07T10:22:20.301Z,19.30
2019-06-07T10:24:50.044Z,19.50
2019-06-07T10:27:19.666Z,19.70
2019-06-07T10:29:49.250Z,20.10
2019-06-07T10:32:18.932Z,20.50
2019-06-07T10:34:48.647Z,20.70
2019-06-07T10:37:18.307Z,20.90
2019-06-07T10:39:49.401Z,21.10
2019-06-07T10:42:19.320Z,21.00
2019-06-07T10:44:49.038Z,21.00
2019-06-07T10:47:18.720Z,21.10
2019-06-07T10:49:48.259Z,21.40
2019-06-07T10:52:18.431Z,21.70
2019-06-07T10:54:48.080Z,21.80
2019-06-07T10:57:17.766Z,21.90
2019-06-07T10:59:47.530Z,21.70
2019-06-07T11:02:17.111Z,21.50
2019-06-07T11:04:47.119Z,21.50
2019-06-07T11:07:39.252Z,21.80
2019-06-07T11:10:15.538Z,21.90
2019-06-07T11:12:41.755Z,21.80
2019-06-07T11:15:12.951Z,21.40
2019-06-07T11:17:42.788Z,21.30
2019-06-07T11:20:12.558Z,21.20
2019-06-07T11:22:42.270Z,21.20
2019-06-07T11:25:14.719Z,21.30
2019-06-07T11:27:44.851Z,21.40
2019-06-07T11:30:14.639Z,21.50
2019-06-07T11:32:45.445Z,21.60
2019-06-07T11:35:15.601Z,21.80
2019-06-07T11:37:45.475Z,22.00
2019-06-07T11:40:32.011Z,22.20
2019-06-07T11:42:46.554Z,22.30
2019-06-07T11:45:16.192Z,22.60
2019-06-07T11:47:46.016Z,22.70
2019-06-07T11:50:15.870Z,22.90
2019-06-07T11:52:46.538Z,23.20
2019-06-07T11:55:16.419Z,23.30
2019-06-07T11:57:46.418Z,23.60
2019-06-07T12:00:18.563Z,23.70
2019-06-07T12:02:48.377Z,24.00
2019-06-07T12:05:20.212Z,24.00
2019-06-07T12:07:49.539Z,24.10
2019-06-07T12:10:22.770Z,24.00
2019-06-07T12:12:50.858Z,24.30
2019-06-07T12:15:20.442Z,24.40
2019-06-07T12:17:50.103Z,24.30
2019-06-07T12:20:21.034Z,24.50
2019-06-07T12:22:50.778Z,24.60
2019-06-07T12:25:24.755Z,24.60
2019-06-07T12:27:51.877Z,24.80
2019-06-07T12:30:27.238Z,24.80
2019-06-07T12:32:52.856Z,25.10
2019-06-07T12:35:22.382Z,25.20
2019-06-07T12:37:51.938Z,25.20
2019-06-07T12:40:30.169Z,25.50
2019-06-07T12:42:52.730Z,25.70
2019-06-07T12:45:43.627Z,26.40
2019-06-07T12:47:53.788Z,26.60
2019-06-07T12:50:25.299Z,26.60
2019-06-07T12:52:55.075Z,26.70
2019-06-07T12:55:24.929Z,26.90
2019-06-07T12:57:55.088Z,27.20
2019-06-07T13:00:24.727Z,27.30
2019-06-07T13:02:54.537Z,27.00
2019-06-07T13:05:24.163Z,27.30
2019-06-07T13:07:53.814Z,27.50
2019-06-07T13:10:24.065Z,28.10
2019-06-07T13:12:54.748Z,27.60
2019-06-07T13:15:26.032Z,27.60
2019-06-07T13:17:56.327Z,27.90
2019-06-07T13:20:25.862Z,28.30
2019-06-07T13:22:55.700Z,28.30
2019-06-07T13:25:43.488Z,28.20
2019-06-07T13:27:57.105Z,28.50
2019-06-07T13:30:26.970Z,28.40
2019-06-07T13:32:56.567Z,28.40
2019-06-07T13:35:29.413Z,28.30
2019-06-07T13:37:59.673Z,28.50
2019-06-07T13:40:30.292Z,28.60
2019-06-07T13:42:59.997Z,28.60
2019-06-07T13:45:30.540Z,28.80
2019-06-07T13:48:00.779Z,29.00
2019-06-07T13:50:31.602Z,28.90
2019-06-07T13:53:07.462Z,29.00
2019-06-07T13:55:57.387Z,29.00
2019-06-07T13:58:28.560Z,29.00
2019-06-07T14:00:58.702Z,29.10
2019-06-07T14:03:32.744Z,29.40
2019-06-07T14:06:15.189Z,29.40
2019-06-07T14:08:44.708Z,29.30
2019-06-07T14:11:14.262Z,29.30
2019-06-07T14:13:43.924Z,29.40
2019-06-07T14:16:13.609Z,29.60
2019-06-07T14:18:43.477Z,29.50
2019-06-07T14:21:13.257Z,29.30
2019-06-07T14:23:49.126Z,29.30
2019-06-07T14:26:14.601Z,29.30
2019-06-07T14:28:44.307Z,29.30
2019-06-07T14:31:13.969Z,29.20
2019-06-07T14:33:43.714Z,29.30
2019-06-07T14:36:13.440Z,29.30
2019-06-07T14:38:42.973Z,29.20
2019-06-07T14:41:12.579Z,29.10
2019-06-07T14:43:52.302Z,29.30
2019-06-07T14:46:23.524Z,29.30
2019-06-07T14:48:53.524Z,29.40
2019-06-07T14:51:24.181Z,29.40
2019-06-07T14:53:53.928Z,29.40
2019-06-07T14:56:24.842Z,29.50
2019-06-07T14:58:54.594Z,29.60
2019-06-07T15:01:24.177Z,29.70
2019-06-07T15:03:53.866Z,29.60
2019-06-07T15:06:24.636Z,29.40
2019-06-07T15:08:57.236Z,29.40
2019-06-07T15:11:27.108Z,29.40
2019-06-07T15:13:57.162Z,29.40
2019-06-07T15:16:27.367Z,29.50
2019-06-07T15:18:57.227Z,29.50
2019-06-07T15:21:26.818Z,29.60
2019-06-07T15:23:57.003Z,29.60
2019-06-07T15:26:28.161Z,29.60
2019-06-07T15:28:59.123Z,29.40
2019-06-07T15:31:29.893Z,29.30
2019-06-07T15:33:59.663Z,29.30
2019-06-07T15:36:30.225Z,29.50
2019-06-07T15:38:59.878Z,29.50
2019-06-07T15:41:30.945Z,29.40
2019-06-07T15:44:01.394Z,29.50
2019-06-07T15:46:31.501Z,29.40
2019-06-07T15:49:01.187Z,29.30
2019-06-07T15:51:32.267Z,29.30
2019-06-07T15:54:02.644Z,29.30
2019-06-07T15:56:32.602Z,29.40
2019-06-07T15:59:02.302Z,29.50
2019-06-07T16:01:33.470Z,29.60
2019-06-07T16:04:03.115Z,29.40
2019-06-07T16:06:34.262Z,29.40
2019-06-07T16:09:05.920Z,29.30
2019-06-07T16:11:38.918Z,29.40
2019-06-07T16:14:09.111Z,29.40
2019-06-07T16:16:41.237Z,29.50
2019-06-07T16:19:11.015Z,29.50
2019-06-07T16:21:41.470Z,29.50
2019-06-07T16:24:11.288Z,29.40
2019-06-07T16:26:42.311Z,29.40
2019-06-07T16:29:12.176Z,29.40
2019-06-07T16:31:42.836Z,29.40
2019-06-07T16:34:12.423Z,29.40
2019-06-07T16:36:42.432Z,29.50
2019-06-07T16:39:21.763Z,29.60
2019-06-07T16:41:56.496Z,29.70
2019-06-07T16:44:27.187Z,29.60
2019-06-07T16:47:06.738Z,29.60
2019-06-07T16:49:40.756Z,29.70
2019-06-07T16:52:11.155Z,29.80
2019-06-07T16:54:41.445Z,29.90
2019-06-07T16:57:11.255Z,30.00
2019-06-07T16:59:41.036Z,30.00
2019-06-07T17:02:18.791Z,30.00
2019-06-07T17:04:48.782Z,30.00
2019-06-07T17:07:18.759Z,30.50
2019-06-07T17:09:49.421Z,30.70
2019-06-07T17:12:20.930Z,31.20
2019-06-07T17:14:51.203Z,31.30
2019-06-07T17:17:20.942Z,31.00
2019-06-07T17:19:50.899Z,30.90
2019-06-07T17:22:20.921Z,31.00
2019-06-07T17:24:52.902Z,31.10
2019-06-07T17:27:22.978Z,31.10
2019-06-07T17:29:55.074Z,31.20
2019-06-07T17:32:25.238Z,31.20
2019-06-07T17:34:55.114Z,31.20
2019-06-07T17:37:24.958Z,31.20
2019-06-07T17:39:56.051Z,31.40
2019-06-07T17:42:26.230Z,31.50
2019-06-07T17:44:55.834Z,31.40
2019-06-07T17:47:25.966Z,31.60
2019-06-07T17:49:56.663Z,31.50
2019-06-07T17:52:26.390Z,31.60
2019-06-07T17:54:55.933Z,32.30
2019-06-07T17:57:25.877Z,32.00
2019-06-07T17:59:55.570Z,31.90
2019-06-07T18:02:25.286Z,32.20
2019-06-07T18:04:55.331Z,32.20
2019-06-07T18:07:24.949Z,32.40
2019-06-07T18:09:55.654Z,32.40
2019-06-07T18:12:25.676Z,32.50
2019-06-07T18:14:55.350Z,32.70
2019-06-07T18:17:34.078Z,32.50
2019-06-07T18:19:56.868Z,32.80
2019-06-07T18:22:26.578Z,32.80
2019-06-07T18:24:56.330Z,32.70
2019-06-07T18:27:26.042Z,32.90
2019-06-07T18:29:56.057Z,33.10
2019-06-07T18:32:25.882Z,33.10
2019-06-07T18:34:55.535Z,33.20
2019-06-07T18:37:25.491Z,33.20
2019-06-07T18:39:55.349Z,33.50
2019-06-07T18:42:25.037Z,33.30
2019-06-07T18:44:55.196Z,33.50
2019-06-07T18:47:25.794Z,33.40
2019-06-07T18:49:57.947Z,33.60
2019-06-07T18:52:34.045Z,33.60
2019-06-07T18:55:03.770Z,33.60
2019-06-07T18:57:33.718Z,33.90
2019-06-07T19:00:04.062Z,34.00
2019-06-07T19:02:33.906Z,34.40
2019-06-07T19:05:03.671Z,34.20
2019-06-07T19:07:33.814Z,34.40
2019-06-07T19:10:04.122Z,34.40
2019-06-07T19:12:33.736Z,34.60
2019-06-07T19:15:03.801Z,34.70
2019-06-07T19:17:33.587Z,34.80
2019-06-07T19:20:03.338Z,35.10
2019-06-07T19:22:33.265Z,35.00
2019-06-07T19:25:03.411Z,35.00
2019-06-07T19:27:33.207Z,35.00
2019-06-07T19:30:03.412Z,35.30
2019-06-07T19:32:33.603Z,35.30
2019-06-07T19:35:03.356Z,35.90
2019-06-07T19:37:32.888Z,35.90
2019-06-07T19:40:02.999Z,36.10
2019-06-07T19:42:33.733Z,36.20
2019-06-07T19:45:27.037Z,36.40
2019-06-07T19:47:34.907Z,36.30
2019-06-07T19:50:04.958Z,36.50
2019-06-07T19:52:34.789Z,36.60
2019-06-07T19:55:08.785Z,36.50
2019-06-07T19:57:36.314Z,36.40
2019-06-07T20:00:13.476Z,36.50
2019-06-07T20:02:37.526Z,36.70
2019-06-07T20:05:07.295Z,37.00
2019-06-07T20:07:36.874Z,37.10
2019-06-07T20:10:06.419Z,37.30
2019-06-07T20:12:36.044Z,37.30
2019-06-07T20:15:24.682Z,37.40
2019-06-07T20:17:37.235Z,37.40
2019-06-07T20:20:08.619Z,37.60
2019-06-07T20:22:38.994Z,38.30
2019-06-07T20:25:09.239Z,37.50
2019-06-07T20:27:40.455Z,37.70
2019-06-07T20:30:10.098Z,37.70
2019-06-07T20:32:39.662Z,37.70
2019-06-07T20:35:09.346Z,37.60
2019-06-07T20:37:38.980Z,37.60
2019-06-07T20:40:22.715Z,38.00
2019-06-07T20:42:39.993Z,38.00
2019-06-07T20:45:09.666Z,38.20
2019-06-07T20:47:39.263Z,38.20
2019-06-07T20:50:09.043Z,38.40
2019-06-07T20:52:39.226Z,38.40
2019-06-07T20:55:09.571Z,37.90
2019-06-07T20:57:39.743Z,35.80
2019-06-07T21:00:16.340Z,34.40
2019-06-07T21:02:40.863Z,34.20
2019-06-07T21:05:10.773Z,34.40
2019-06-07T21:07:40.833Z,33.80
2019-06-07T21:10:10.877Z,33.90
2019-06-07T21:12:40.534Z,34.30
2019-06-07T21:15:14.126Z,35.60
2019-06-07T21:17:41.890Z,36.40
2019-06-07T21:20:14.535Z,37.10
2019-06-07T21:22:44.085Z,37.90
2019-06-07T21:25:13.608Z,38.00
2019-06-07T21:27:52.405Z,37.70
2019-06-07T21:30:34.535Z,37.60
2019-06-07T21:33:28.977Z,37.70
2019-06-07T21:36:26.300Z,37.80
2019-06-07T21:38:55.987Z,37.40
2019-06-07T21:41:26.804Z,37.90
2019-06-07T21:43:56.702Z,37.80
2019-06-07T21:46:26.617Z,38.00
2019-06-07T21:48:56.242Z,37.60
2019-06-07T21:51:25.887Z,37.70
2019-06-07T21:53:55.832Z,37.50
2019-06-07T21:56:25.959Z,37.10
2019-06-07T21:58:55.843Z,37.10
2019-06-07T22:01:27.629Z,37.20
2019-06-07T22:03:57.175Z,37.30
2019-06-07T22:06:27.116Z,37.50
2019-06-07T22:08:56.729Z,37.30
2019-06-07T22:11:26.435Z,37.70
2019-06-07T22:13:56.258Z,37.40
2019-06-07T22:16:29.183Z,38.60
2019-06-07T22:18:57.131Z,38.90
2019-06-07T22:21:26.968Z,38.50
2019-06-07T22:23:56.468Z,38.20
2019-06-07T22:26:26.073Z,37.80
2019-06-07T22:28:55.683Z,37.40
2019-06-07T22:31:25.230Z,36.60
2019-06-07T22:33:54.850Z,35.80
2019-06-07T22:36:24.464Z,35.80
2019-06-07T22:38:54.244Z,35.80
2019-06-07T22:41:23.864Z,35.70
2019-06-07T22:43:53.399Z,36.20
2019-06-07T22:46:36.501Z,37.20
2019-06-07T22:48:54.794Z,37.00
2019-06-07T22:51:24.454Z,36.50
2019-06-07T22:53:53.978Z,35.00
2019-06-07T22:56:28.654Z,34.80
2019-06-07T22:58:58.330Z,34.90
2019-06-07T23:01:27.907Z,34.30
2019-06-07T23:03:57.464Z,34.10
2019-06-07T23:06:27.101Z,34.80
2019-06-07T23:08:56.698Z,34.30
2019-06-07T23:11:26.245Z,34.90
2019-06-07T23:13:56.107Z,34.70
2019-06-07T23:16:25.711Z,33.90
2019-06-07T23:18:55.270Z,33.70
2019-06-07T23:21:24.875Z,33.10
2019-06-07T23:23:54.403Z,32.90
2019-06-07T23:26:24.216Z,33.40
2019-06-07T23:28:53.825Z,33.50
2019-06-07T23:31:23.442Z,34.00
2019-06-07T23:33:53.068Z,33.90
2019-06-07T23:36:22.694Z,33.90
2019-06-07T23:38:52.302Z,34.00
2019-06-07T23:41:22.362Z,34.20
2019-06-07T23:43:51.941Z,34.10
2019-06-07T23:46:21.769Z,34.10
2019-06-07T23:48:51.403Z,34.30
2019-06-07T23:51:22.393Z,34.40
2019-06-07T23:53:52.317Z,34.60
2019-06-07T23:56:22.252Z,34.90
2019-06-07T23:58:52.004Z,34.90
